createdAt,value
2019-02-18T00:02:05.827Z,99937.59
2019-02-18T00:04:34.274Z,99937.59
2019-02-18T00:07:02.751Z,99959.31
2019-02-18T00:09:31.209Z,99951.82
2019-02-18T00:11:59.445Z,99952.47
2019-02-18T00:14:27.671Z,99952.47
2019-02-18T00:16:55.908Z,99957.13
2019-02-18T00:19:24.371Z,99959.93
2019-02-18T00:21:52.833Z,99955.64
2019-02-18T00:24:21.060Z,99954.51
2019-02-18T00:26:49.528Z,99962.91
2019-02-18T00:29:17.988Z,99964.56
2019-02-18T00:31:46.224Z,99958.62
2019-02-18T00:34:14.455Z,99958.62
2019-02-18T00:36:42.698Z,99959.41
2019-02-18T00:39:11.155Z,99959.30
2019-02-18T00:41:39.619Z,99961.72
2019-02-18T00:44:08.080Z,99961.98
2019-02-18T00:46:36.320Z,99961.98
2019-02-18T00:49:04.547Z,99938.80
2019-02-18T00:51:32.788Z,99957.71
2019-02-18T00:54:01.021Z,99960.77
2019-02-18T00:56:29.483Z,99960.77
2019-02-18T00:58:57.721Z,99952.06
2019-02-18T01:01:26.174Z,99948.13
2019-02-18T01:03:54.412Z,99950.34
2019-02-18T01:06:22.653Z,99949.36
2019-02-18T01:08:50.880Z,99947.37
2019-02-18T01:11:19.108Z,99940.79
2019-02-18T01:13:47.351Z,99942.06
2019-02-18T01:16:15.575Z,99947.27
2019-02-18T01:18:44.096Z,99949.18
2019-02-18T01:21:12.325Z,99950.07
2019-02-18T01:23:40.582Z,99946.77
2019-02-18T01:26:08.789Z,99954.01
2019-02-18T01:28:37.308Z,99942.56
2019-02-18T01:31:05.535Z,99942.56
2019-02-18T01:33:33.787Z,99944.36
2019-02-18T01:36:02.024Z,99945.51
2019-02-18T01:38:30.516Z,99945.51
2019-02-18T01:40:58.744Z,99940.21
2019-02-18T01:43:26.982Z,99948.48
2019-02-18T01:45:55.272Z,99941.13
2019-02-18T01:48:23.515Z,99940.88
2019-02-18T01:50:51.739Z,99939.54
2019-02-18T01:53:20.195Z,99934.47
2019-02-18T01:55:48.431Z,99934.47
2019-02-18T01:58:16.661Z,99930.02
2019-02-18T02:00:45.127Z,99928.87
2019-02-18T02:03:13.351Z,99931.53
2019-02-18T02:05:41.588Z,99933.44
2019-02-18T02:08:10.041Z,99931.04
2019-02-18T02:10:38.280Z,99935.11
2019-02-18T02:13:32.719Z,99928.75
2019-02-18T02:16:01.792Z,99930.71
2019-02-18T02:18:30.265Z,99929.44
2019-02-18T02:20:58.518Z,99922.34
2019-02-18T02:23:26.727Z,99922.34
2019-02-18T02:25:55.185Z,99928.30
2019-02-18T02:28:23.426Z,99926.02
2019-02-18T02:30:51.666Z,99924.62
2019-02-18T02:33:19.897Z,99921.44
2019-02-18T02:35:48.133Z,99919.02
2019-02-18T02:38:16.362Z,99922.58
2019-02-18T02:40:44.815Z,99913.33
2019-02-18T02:43:13.277Z,99920.35
2019-02-18T02:45:41.502Z,99915.91
2019-02-18T02:48:09.735Z,99914.14
2019-02-18T02:50:37.959Z,99918.20
2019-02-18T02:53:06.191Z,99918.58
2019-02-18T02:55:34.415Z,99923.53
2019-02-18T02:58:02.652Z,99916.94
2019-02-18T03:00:30.876Z,99916.69
2019-02-18T03:02:59.116Z,99923.28
2019-02-18T03:05:27.348Z,99919.77
2019-02-18T03:07:55.580Z,99920.66
2019-02-18T03:10:24.035Z,99922.06
2019-02-18T03:12:52.268Z,99931.71
2019-02-18T03:15:20.724Z,99932.89
2019-02-18T03:17:48.962Z,99930.22
2019-02-18T03:20:17.186Z,99931.33
2019-02-18T03:22:45.419Z,99933.88
2019-02-18T03:25:27.576Z,99931.96
2019-02-18T03:28:24.446Z,99926.76
2019-02-18T03:30:58.504Z,99934.54
2019-02-18T03:33:32.654Z,99921.05
2019-02-18T03:36:01.101Z,99929.21
2019-02-18T03:38:31.928Z,99921.21
2019-02-18T03:41:03.133Z,99929.47
2019-02-18T03:43:29.234Z,99924.52
2019-02-18T03:45:57.451Z,99922.39
2019-02-18T03:48:25.682Z,99928.09
2019-02-18T03:50:54.141Z,99924.16
2019-02-18T03:53:22.380Z,99921.91
2019-02-18T03:55:50.847Z,99921.91
2019-02-18T03:58:19.084Z,99929.27
2019-02-18T04:00:47.292Z,99929.01
2019-02-18T04:03:15.520Z,99923.94
2019-02-18T04:05:43.755Z,99925.08
2019-02-18T04:08:11.979Z,99920.50
2019-02-18T04:10:40.206Z,99905.69
2019-02-18T04:13:08.441Z,99923.16
2019-02-18T04:15:36.667Z,99924.81
2019-02-18T04:18:04.952Z,99930.42
2019-02-18T04:20:33.187Z,99929.38
2019-02-18T04:23:01.639Z,99935.97
2019-02-18T04:25:30.102Z,99927.38
2019-02-18T04:27:58.325Z,99925.98
2019-02-18T04:30:26.561Z,99929.66
2019-02-18T04:32:54.855Z,99928.38
2019-02-18T04:35:23.023Z,99928.88
2019-02-18T04:37:51.249Z,99928.50
2019-02-18T04:40:19.706Z,99931.19
2019-02-18T04:42:48.154Z,99930.02
2019-02-18T04:45:16.605Z,99925.09
2019-02-18T04:47:44.826Z,99927.25
2019-02-18T04:50:13.069Z,99925.73
2019-02-18T04:52:41.309Z,99923.58
2019-02-18T04:55:10.758Z,99926.35
2019-02-18T04:57:38.994Z,99925.84
2019-02-18T05:00:08.862Z,99928.11
2019-02-18T05:02:37.325Z,99927.23
2019-02-18T05:05:10.294Z,99924.69
2019-02-18T05:07:38.796Z,99926.84
2019-02-18T05:10:09.469Z,99927.98
2019-02-18T05:12:37.917Z,99924.56
2019-02-18T05:15:07.588Z,99926.22
2019-02-18T05:17:36.038Z,99926.98
2019-02-18T05:20:08.447Z,99922.41
2019-02-18T05:22:36.677Z,99915.70
2019-02-18T05:25:09.346Z,99906.70
2019-02-18T05:27:37.588Z,99906.95
2019-02-18T05:30:10.439Z,99907.33
2019-02-18T05:32:38.672Z,99908.73
2019-02-18T05:35:07.634Z,99908.48
2019-02-18T05:37:36.084Z,99906.95
2019-02-18T05:40:06.045Z,99904.66
2019-02-18T05:42:34.295Z,99899.58
2019-02-18T05:45:02.508Z,99896.16
2019-02-18T05:47:30.742Z,99901.50
2019-02-18T05:49:58.967Z,99896.80
2019-02-18T05:52:27.214Z,99899.71
2019-02-18T05:54:55.476Z,99906.67
2019-02-18T05:57:23.927Z,99906.54
2019-02-18T05:59:52.174Z,99899.31
2019-02-18T06:02:21.757Z,99901.85
2019-02-18T06:04:49.988Z,99900.34
2019-02-18T06:07:18.221Z,99903.63
2019-02-18T06:09:46.447Z,99904.38
2019-02-18T06:12:14.908Z,99898.18
2019-02-18T06:14:43.138Z,99897.16
2019-02-18T06:17:11.360Z,99898.83
2019-02-18T06:19:39.834Z,99904.91
2019-02-18T06:22:08.086Z,99904.38
2019-02-18T06:24:36.514Z,99909.83
2019-02-18T06:27:04.746Z,99904.77
2019-02-18T06:29:33.228Z,99914.67
2019-02-18T06:32:01.505Z,99915.41
2019-02-18T06:34:29.703Z,99911.72
2019-02-18T06:36:58.171Z,99913.88
2019-02-18T06:39:26.398Z,99918.67
2019-02-18T06:41:54.641Z,99911.73
2019-02-18T06:44:24.503Z,99917.27
2019-02-18T06:46:54.382Z,99918.43
2019-02-18T06:49:22.609Z,99920.85
2019-02-18T06:51:51.076Z,99926.70
2019-02-18T06:54:19.291Z,99931.00
2019-02-18T06:56:54.829Z,99933.42
2019-02-18T06:59:24.692Z,99932.92
2019-02-18T07:01:54.567Z,99935.72
2019-02-18T07:04:33.155Z,99941.78
2019-02-18T07:07:08.667Z,99942.56
2019-02-18T07:09:54.512Z,99941.69
2019-02-18T07:12:24.457Z,99947.40
2019-02-18T07:14:52.905Z,99942.69
2019-02-18T07:17:21.373Z,99932.31
2019-02-18T07:19:49.936Z,99938.64
2019-02-18T07:22:18.173Z,99935.48
2019-02-18T07:24:46.628Z,99937.50
2019-02-18T07:27:14.875Z,99938.64
2019-02-18T07:29:43.097Z,99942.20
2019-02-18T07:32:11.631Z,99939.92
2019-02-18T07:34:39.868Z,99935.33
2019-02-18T07:37:08.101Z,99940.15
2019-02-18T07:39:36.566Z,99941.67
2019-02-18T07:42:05.250Z,99941.77
2019-02-18T07:44:33.712Z,99942.28
2019-02-18T07:47:02.217Z,99943.89
2019-02-18T07:49:30.450Z,99940.72
2019-02-18T07:51:58.681Z,99936.87
2019-02-18T07:54:26.929Z,99929.20
2019-02-18T07:56:55.157Z,99931.47
2019-02-18T07:59:23.621Z,99928.36
2019-02-18T08:01:52.184Z,99923.22
2019-02-18T08:04:20.668Z,99926.49
2019-02-18T08:06:48.983Z,99922.11
2019-02-18T08:09:17.529Z,99924.48
2019-02-18T08:11:45.764Z,99917.67
2019-02-18T08:14:13.995Z,99918.30
2019-02-18T08:16:42.260Z,99918.30
2019-02-18T08:19:10.472Z,99909.21
2019-02-18T08:21:38.705Z,99913.44
2019-02-18T08:24:06.950Z,99913.44
2019-02-18T08:26:35.182Z,99920.78
2019-02-18T08:29:03.708Z,99920.78
2019-02-18T08:31:31.879Z,99914.38
2019-02-18T08:34:00.147Z,99917.47
2019-02-18T08:36:28.387Z,99916.03
2019-02-18T08:38:56.857Z,99916.03
2019-02-18T08:41:25.352Z,99915.29
2019-02-18T08:43:53.620Z,99912.72
2019-02-18T08:46:21.873Z,99908.83
2019-02-18T08:48:50.102Z,99911.02
2019-02-18T08:51:18.334Z,99911.02
2019-02-18T08:53:47.917Z,99909.66
2019-02-18T08:56:16.286Z,99909.66
2019-02-18T08:58:44.521Z,99913.98
2019-02-18T09:01:12.758Z,99913.98
2019-02-18T09:03:40.988Z,99911.39
2019-02-18T09:06:09.223Z,99908.28
2019-02-18T09:08:37.448Z,99877.28
2019-02-18T09:11:05.748Z,99877.28
2019-02-18T09:13:33.982Z,99913.41
2019-02-18T09:16:02.221Z,99893.98
2019-02-18T09:18:30.679Z,99893.98
2019-02-18T09:20:59.210Z,99907.58
2019-02-18T09:23:32.296Z,99880.66
2019-02-18T09:26:00.800Z,99898.09
2019-02-18T09:28:29.377Z,99904.56
2019-02-18T09:30:57.686Z,99895.09
2019-02-18T09:33:25.929Z,99891.66
2019-02-18T09:35:54.182Z,99885.66
2019-02-18T09:38:25.352Z,99885.66
2019-02-18T09:40:52.414Z,99886.22
2019-02-18T09:43:20.878Z,99886.49
2019-02-18T09:45:49.372Z,99889.45
2019-02-18T09:48:17.599Z,99890.89
2019-02-18T09:50:45.836Z,99882.13
2019-02-18T09:53:14.077Z,99882.77
2019-02-18T09:55:42.305Z,99889.42
2019-02-18T09:58:10.540Z,99881.83
2019-02-18T10:00:38.766Z,99878.32
2019-02-18T10:03:07.015Z,99876.78
2019-02-18T10:05:35.247Z,99868.44
2019-02-18T10:08:03.715Z,99871.56
2019-02-18T10:10:32.232Z,99868.15
2019-02-18T10:13:00.479Z,99868.05
2019-02-18T10:15:28.993Z,99862.87
2019-02-18T10:17:57.464Z,99859.22
2019-02-18T10:20:25.957Z,99862.69
2019-02-18T10:22:54.180Z,99862.42
2019-02-18T10:25:22.435Z,99862.44
2019-02-18T10:27:50.645Z,99854.22
2019-02-18T10:30:20.731Z,99851.01
2019-02-18T10:32:49.020Z,99856.00
2019-02-18T10:35:17.253Z,99851.44
2019-02-18T10:37:54.670Z,99847.74
2019-02-18T10:40:15.448Z,99844.31
2019-02-18T10:42:43.682Z,99847.11
2019-02-18T10:45:13.054Z,99830.56
2019-02-18T10:47:41.604Z,99830.89
2019-02-18T10:50:11.185Z,99829.98
2019-02-18T10:52:39.416Z,99827.58
2019-02-18T10:55:10.028Z,99820.80
2019-02-18T10:57:38.536Z,99814.30
2019-02-18T11:00:15.108Z,99817.42
2019-02-18T11:02:43.337Z,99816.19
2019-02-18T11:05:11.574Z,99816.02
2019-02-18T11:07:39.812Z,99810.63
2019-02-18T11:10:11.221Z,99812.40
2019-02-18T11:12:39.468Z,99805.84
2019-02-18T11:15:10.830Z,99802.30
2019-02-18T11:17:39.376Z,99799.73
2019-02-18T11:20:09.847Z,99791.48
2019-02-18T11:22:38.305Z,99788.73
2019-02-18T11:25:14.704Z,99785.63
2019-02-18T11:27:42.933Z,99778.40
2019-02-18T11:30:16.346Z,99780.20
2019-02-18T11:32:44.598Z,99783.05
2019-02-18T11:35:13.523Z,99771.36
2019-02-18T11:37:41.775Z,99768.64
2019-02-18T11:40:14.813Z,99765.37
2019-02-18T11:42:43.048Z,99762.95
2019-02-18T11:45:13.502Z,99764.59
2019-02-18T11:47:41.956Z,99767.28
2019-02-18T11:50:12.694Z,99753.48
2019-02-18T11:52:40.939Z,99749.47
2019-02-18T11:55:11.199Z,99752.80
2019-02-18T11:57:39.673Z,99741.50
2019-02-18T12:00:15.638Z,99735.72
2019-02-18T12:02:43.946Z,99744.87
2019-02-18T12:05:12.179Z,99733.15
2019-02-18T12:07:40.672Z,99726.34
2019-02-18T12:10:12.667Z,99732.98
2019-02-18T12:12:41.185Z,99730.14
2019-02-18T12:15:13.765Z,99724.89
2019-02-18T12:17:42.011Z,99720.00
2019-02-18T12:20:16.681Z,99714.41
2019-02-18T12:22:45.003Z,99716.30
2019-02-18T12:25:13.836Z,99708.23
2019-02-18T12:27:42.458Z,99708.42
2019-02-18T12:30:15.644Z,99702.86
2019-02-18T12:32:43.890Z,99701.64
2019-02-18T12:35:12.487Z,99692.72
2019-02-18T12:37:40.717Z,99695.14
2019-02-18T12:40:10.726Z,99691.00
2019-02-18T12:42:39.027Z,99692.35
2019-02-18T12:45:13.238Z,99690.34
2019-02-18T12:47:42.312Z,99684.84
2019-02-18T12:50:12.090Z,99688.42
2019-02-18T12:52:40.326Z,99688.02
2019-02-18T12:55:10.011Z,99682.64
2019-02-18T12:57:38.800Z,99675.81
2019-02-18T13:00:10.569Z,99675.59
2019-02-18T13:02:44.114Z,99676.95
2019-02-18T13:05:09.490Z,99674.84
2019-02-18T13:07:37.942Z,99670.56
2019-02-18T13:10:07.934Z,99672.63
2019-02-18T13:12:36.405Z,99662.25
2019-02-18T13:15:08.473Z,99661.02
2019-02-18T13:17:36.706Z,99654.77
2019-02-18T13:20:06.611Z,99655.64
2019-02-18T13:22:34.842Z,99648.91
2019-02-18T13:25:03.079Z,99642.52
2019-02-18T13:27:31.307Z,99645.50
2019-02-18T13:29:59.939Z,99640.49
2019-02-18T13:32:28.175Z,99632.72
2019-02-18T13:34:57.123Z,99631.46
2019-02-18T13:37:25.353Z,99626.30
2019-02-18T13:39:53.589Z,99621.20
2019-02-18T13:42:21.835Z,99620.44
2019-02-18T13:44:50.069Z,99622.32
2019-02-18T13:47:18.584Z,99618.63
2019-02-18T13:49:46.819Z,99611.55
2019-02-18T13:52:15.064Z,99606.16
2019-02-18T13:54:43.570Z,99610.22
2019-02-18T13:57:11.820Z,99610.34
2019-02-18T13:59:40.050Z,99602.30
2019-02-18T14:02:08.713Z,99610.16
2019-02-18T14:04:37.220Z,99608.59
2019-02-18T14:07:05.689Z,99611.39
2019-02-18T14:09:34.266Z,99605.11
2019-02-18T14:12:02.501Z,99606.45
2019-02-18T14:14:30.730Z,99601.37
2019-02-18T14:16:58.977Z,99597.88
2019-02-18T14:19:27.485Z,99592.31
2019-02-18T14:21:55.738Z,99593.12
2019-02-18T14:24:24.227Z,99586.75
2019-02-18T14:26:52.477Z,99585.88
2019-02-18T14:29:20.708Z,99589.75
2019-02-18T14:31:49.186Z,99577.25
2019-02-18T14:34:17.419Z,99578.65
2019-02-18T14:36:45.648Z,99577.05
2019-02-18T14:39:19.666Z,99580.39
2019-02-18T14:41:47.905Z,99577.38
2019-02-18T14:44:16.147Z,99579.27
2019-02-18T14:46:44.382Z,99565.47
2019-02-18T14:49:12.629Z,99568.50
2019-02-18T14:51:41.033Z,99571.92
2019-02-18T14:54:09.349Z,99579.57
2019-02-18T14:56:37.869Z,99569.42
2019-02-18T14:59:06.677Z,99572.26
2019-02-18T15:01:35.120Z,99569.03
2019-02-18T15:04:03.858Z,99562.26
2019-02-18T15:06:32.601Z,99559.02
2019-02-18T15:09:01.078Z,99564.72
2019-02-18T15:11:29.600Z,99557.46
2019-02-18T15:13:58.070Z,99556.63
2019-02-18T15:16:26.303Z,99557.78
2019-02-18T15:18:54.547Z,99553.54
2019-02-18T15:21:22.781Z,99554.00
2019-02-18T15:23:51.248Z,99554.38
2019-02-18T15:26:19.484Z,99556.55
2019-02-18T15:28:47.721Z,99551.50
2019-02-18T15:31:15.956Z,99549.23
2019-02-18T15:33:44.434Z,99550.02
2019-02-18T15:36:12.743Z,99552.84
2019-02-18T15:38:41.252Z,99550.95
2019-02-18T15:41:09.496Z,99552.09
2019-02-18T15:43:37.744Z,99543.73
2019-02-18T15:46:06.286Z,99541.41
2019-02-18T15:48:36.369Z,99539.05
2019-02-18T15:51:04.648Z,99546.20
2019-02-18T15:53:33.107Z,99539.11
2019-02-18T15:56:01.348Z,99541.61
2019-02-18T15:58:29.820Z,99541.86
2019-02-18T16:00:59.363Z,99540.55
2019-02-18T16:03:27.695Z,99535.23
2019-02-18T16:05:55.937Z,99523.64
2019-02-18T16:08:24.175Z,99526.17
2019-02-18T16:10:52.590Z,99518.41
2019-02-18T16:13:21.056Z,99512.80
2019-02-18T16:15:49.297Z,99514.58
2019-02-18T16:18:17.764Z,99511.54
2019-02-18T16:20:46.013Z,99512.31
2019-02-18T16:23:14.243Z,99507.03
2019-02-18T16:25:42.488Z,99513.89
2019-02-18T16:28:10.731Z,99509.50
2019-02-18T16:30:38.960Z,99515.07
2019-02-18T16:33:07.230Z,99511.70
2019-02-18T16:35:35.742Z,99514.42
2019-02-18T16:38:03.985Z,99513.19
2019-02-18T16:40:32.588Z,99508.52
2019-02-18T16:43:00.840Z,99509.76
2019-02-18T16:45:29.069Z,99513.09
2019-02-18T16:47:57.318Z,99509.52
2019-02-18T16:50:25.544Z,99502.76
2019-02-18T16:52:53.800Z,99491.30
2019-02-18T16:55:22.032Z,99475.13
2019-02-18T16:57:50.654Z,99484.72
2019-02-18T17:00:20.867Z,99487.72
2019-02-18T17:02:50.930Z,99490.81
2019-02-18T17:05:19.074Z,99486.55
2019-02-18T17:07:47.324Z,99490.96
2019-02-18T17:10:15.562Z,99499.16
2019-02-18T17:12:44.074Z,99506.70
2019-02-18T17:15:13.668Z,99505.41
2019-02-18T17:17:42.168Z,99501.64
2019-02-18T17:20:10.650Z,99502.66
2019-02-18T17:22:39.138Z,99503.70
2019-02-18T17:25:12.222Z,99497.94
2019-02-18T17:27:40.532Z,99501.03
2019-02-18T17:30:14.713Z,99507.69
2019-02-18T17:32:43.014Z,99490.97
2019-02-18T17:35:12.795Z,99502.06
2019-02-18T17:37:41.093Z,99495.57
2019-02-18T17:40:11.472Z,99498.55
2019-02-18T17:42:40.079Z,99498.58
2019-02-18T17:45:11.156Z,99496.41
2019-02-18T17:47:39.385Z,99500.44
2019-02-18T17:50:10.462Z,99495.08
2019-02-18T17:52:38.770Z,99495.55
2019-02-18T17:55:09.969Z,99490.49
2019-02-18T17:57:38.546Z,99495.95
2019-02-18T18:00:09.897Z,99491.80
2019-02-18T18:02:38.349Z,99496.25
2019-02-18T18:05:07.942Z,99503.23
2019-02-18T18:07:36.171Z,99501.59
2019-02-18T18:10:09.497Z,99495.23
2019-02-18T18:12:38.004Z,99502.58
2019-02-18T18:15:11.476Z,99505.14
2019-02-18T18:17:39.701Z,99508.22
2019-02-18T18:20:10.185Z,99506.63
2019-02-18T18:22:38.645Z,99503.69
2019-02-18T18:25:11.880Z,99508.01
2019-02-18T18:27:40.111Z,99501.27
2019-02-18T18:30:10.994Z,99510.52
2019-02-18T18:32:39.235Z,99503.06
2019-02-18T18:35:10.133Z,99505.46
2019-02-18T18:37:38.628Z,99490.33
2019-02-18T18:40:09.966Z,99502.04
2019-02-18T18:42:38.208Z,99491.95
2019-02-18T18:45:09.075Z,99491.70
2019-02-18T18:47:37.309Z,99491.40
2019-02-18T18:50:08.711Z,99492.74
2019-02-18T18:52:37.844Z,99482.16
2019-02-18T18:55:06.236Z,99488.83
2019-02-18T18:57:34.478Z,99489.15
2019-02-18T19:00:02.715Z,99492.25
2019-02-18T19:02:30.951Z,99487.92
2019-02-18T19:04:59.177Z,99489.92
2019-02-18T19:07:27.706Z,99493.14
2019-02-18T19:09:56.214Z,99494.65
2019-02-18T19:12:24.452Z,99492.23
2019-02-18T19:14:52.945Z,99496.16
2019-02-18T19:17:21.427Z,99487.03
2019-02-18T19:19:57.542Z,99495.50
2019-02-18T19:22:19.907Z,99491.40
2019-02-18T19:24:48.516Z,99495.06
2019-02-18T19:27:16.757Z,99498.23
2019-02-18T19:29:44.990Z,99492.72
2019-02-18T19:32:13.229Z,99495.59
2019-02-18T19:34:41.710Z,99496.69
2019-02-18T19:37:09.934Z,99498.27
2019-02-18T19:39:38.446Z,99493.55
2019-02-18T19:42:07.147Z,99488.44
2019-02-18T19:44:35.386Z,99495.63
2019-02-18T19:47:03.835Z,99492.93
2019-02-18T19:49:32.224Z,99495.92
2019-02-18T19:52:00.473Z,99510.60
2019-02-18T19:54:28.711Z,99500.68
2019-02-18T19:56:56.940Z,99508.27
2019-02-18T19:59:25.193Z,99505.30
2019-02-18T20:01:53.792Z,99511.06
2019-02-18T20:04:22.233Z,99507.94
2019-02-18T20:06:50.482Z,99491.84
2019-02-18T20:09:18.774Z,99510.11
2019-02-18T20:11:47.267Z,99507.18
2019-02-18T20:14:15.724Z,99502.44
2019-02-18T20:16:43.951Z,99501.58
2019-02-18T20:19:12.340Z,99505.33
2019-02-18T20:21:40.561Z,99503.07
2019-02-18T20:24:09.110Z,99505.47
2019-02-18T20:26:37.715Z,99505.87
2019-02-18T20:29:05.957Z,99498.69
2019-02-18T20:31:34.180Z,99494.19
2019-02-18T20:34:02.426Z,99491.72
2019-02-18T20:36:30.657Z,99493.05
2019-02-18T20:38:59.012Z,99492.86
2019-02-18T20:41:27.248Z,99493.58
2019-02-18T20:43:55.479Z,99493.58
2019-02-18T20:46:23.705Z,99492.74
2019-02-18T20:48:51.946Z,99492.74
2019-02-18T20:51:20.447Z,99494.52
2019-02-18T20:53:48.930Z,99489.66
2019-02-18T20:56:17.169Z,99502.38
2019-02-18T20:58:47.206Z,99508.80
2019-02-18T21:01:15.705Z,99503.71
2019-02-18T21:03:43.941Z,99501.50
2019-02-18T21:06:12.197Z,99488.59
2019-02-18T21:08:40.496Z,99496.64
2019-02-18T21:11:09.022Z,99503.77
2019-02-18T21:13:37.596Z,99510.94
2019-02-18T21:16:06.191Z,99504.65
2019-02-18T21:18:34.422Z,99503.12
2019-02-18T21:21:02.657Z,99482.95
2019-02-18T21:23:30.880Z,99494.92
2019-02-18T21:25:59.115Z,99498.45
2019-02-18T21:28:27.340Z,99498.45
2019-02-18T21:30:55.802Z,99488.44
2019-02-18T21:33:24.252Z,99481.97
2019-02-18T21:35:52.485Z,99479.41
2019-02-18T21:38:20.732Z,99481.38
2019-02-18T21:40:49.470Z,99482.78
2019-02-18T21:43:17.694Z,99482.78
2019-02-18T21:45:46.208Z,99463.29
2019-02-18T21:48:14.662Z,99463.29
2019-02-18T21:50:43.192Z,99473.79
2019-02-18T21:53:11.459Z,99464.17
2019-02-18T21:55:40.163Z,99476.92
2019-02-18T21:58:08.400Z,99476.92
2019-02-18T22:00:36.629Z,99475.36
2019-02-18T22:03:05.434Z,99486.02
2019-02-18T22:05:33.678Z,99486.02
2019-02-18T22:08:01.898Z,99468.06
2019-02-18T22:10:30.125Z,99488.48
2019-02-18T22:12:58.422Z,99488.48
2019-02-18T22:15:26.891Z,99474.55
2019-02-18T22:17:55.394Z,99474.55
2019-02-18T22:20:23.619Z,99473.95
2019-02-18T22:22:51.851Z,99493.55
2019-02-18T22:25:20.081Z,99493.05
2019-02-18T22:27:48.309Z,99500.12
2019-02-18T22:30:16.628Z,99500.12
2019-02-18T22:32:44.879Z,99499.33
2019-02-18T22:35:13.494Z,99499.33
2019-02-18T22:37:41.728Z,99497.66
2019-02-18T22:40:13.715Z,99485.50
2019-02-18T22:42:41.946Z,99485.50
2019-02-18T22:45:13.487Z,99506.30
2019-02-18T22:47:41.977Z,99497.17
2019-02-18T22:50:11.160Z,99491.13
2019-02-18T22:52:39.622Z,99491.13
2019-02-18T22:55:08.942Z,99479.05
2019-02-18T22:57:37.172Z,99512.30
2019-02-18T23:00:11.358Z,99512.30
2019-02-18T23:02:41.872Z,99507.10
2019-02-18T23:05:10.110Z,99490.75
2019-02-18T23:07:38.561Z,99490.75
2019-02-18T23:10:07.277Z,99510.06
2019-02-18T23:12:35.508Z,99498.70
2019-02-18T23:15:04.885Z,99512.34
2019-02-18T23:17:33.115Z,99512.34
2019-02-18T23:20:01.354Z,99494.96
2019-02-18T23:22:30.286Z,99509.57
2019-02-18T23:24:58.525Z,99511.45
2019-02-18T23:27:26.754Z,99511.45
2019-02-18T23:29:55.279Z,99513.20
2019-02-18T23:32:23.760Z,99513.20
2019-02-18T23:34:52.248Z,99505.27
2019-02-18T23:37:20.479Z,99505.64
2019-02-18T23:39:48.719Z,99521.63
2019-02-18T23:42:16.951Z,99509.16
2019-02-18T23:44:45.179Z,99509.16
2019-02-18T23:47:13.651Z,99523.86
2019-02-18T23:49:41.875Z,99522.09
2019-02-18T23:52:10.118Z,99516.80
2019-02-18T23:54:38.341Z,99516.80
2019-02-18T23:57:06.578Z,99517.89
2019-02-18T23:59:34.805Z,99514.05
